KMPO

Pocono Mountains Municipal Airport

Mount Pocono, Pennsylvania, USA
METAR KMPO 221818Z AUTO 20008KT 10SM BKN029 OVC085 05/00 A3012 RMK AO2 T00500000
Observed Flight Rules
Oct-22 @ 18:18 UTC (36 minutes ago) Marginal Visual Flight Rules
Wind Visibility Clouds
200° at 8 knots 10 miles
  • Broken at 2,900' AGL
  • Overcast at 8,500' AGL
Temperatures Readings
Current 5°C / 41°F
Dewpoint 0°C / 32°F
Humidity 70%
Altimeter 30.12" Hg
Pressure 1020 hPa
Elevation 577
METAR KMPO 221818Z AUTO 20008KT 10SM BKN029 OVC085 05/00 A3012 RMK AO2 T00500000
Observed Flight Rules
Oct-22 @ 18:18 UTC
(36 minutes ago)
MVFR
Wind Visibility
200° at 8 knots 10 miles
Clouds
  • Broken at 2,900' AGL
  • Overcast at 8,500' AGL
Temperature Dewpoint
5°C / 41°F 0°C / 32°F
Humidity Altimeter Pressure
70% 30.12" Hg 1020 hPa